Anadolu University Airport Eskisehir TR
ICAO: LTBY
IATA: AOE
Category: Medium
Scheduled Services: Yes

Elevation: 2588 ft
TransAlt. 10000 ft.

Airport Communications:
TWR:123.75

LTBY Zoom In..

If you have problems with the map follow the link
https://www.worldairports.se/pages/airport.php?
ICAO=LTBY

Runways:

(A) RW 09 length 9843 ft width 148 ft
ILS 110.30 / hdg 88

(B) RW 27 length 9843 ft width 148 ft
---- / hdg 268

Location; LTBY
Day. 17 / Time. 01.50 Zulu
* QNH: 1014
* Temperature: 06° c. 42.8°f.
* Wind from: 100° Speed 07 kn.
Dewpoint: 04° c.
Visibility: 8000 m.
Clouds: Few 1900 ft.
Clouds: Scattered 3000 ft.
Clouds: Broken 1000 ft.

LTBY 170150Z 10007KT 8000 FEW019 SCT030 BKN100 06/04 Q1014


Wind From 100°
Speed 07 kn.

 
 
jpsmedia.com for Web Design worldairports.se 2018   terms of use